KSBM

Sheboygan County Memorial Airport

Sheboygan, Wisconsin, USA
METAR KSBM 230853Z AUTO 31010KT 10SM CLR 05/M02 A3013 RMK AO2 SLP206 T00501017 53023
Observed Flight Rules
Oct-23 @ 08:53 UTC (47 minutes ago) Visual Flight Rules
Wind Visibility Clouds
310° at 10 knots 10 miles
  • Clear skies
Temperatures Readings
Current 5°C / 41°F
Dewpoint -2°C / 28°F
Humidity 61%
Altimeter 30.13" Hg
Pressure 1020.6 hPa
Elevation 232
METAR KSBM 230853Z AUTO 31010KT 10SM CLR 05/M02 A3013 RMK AO2 SLP206 T00501017 53023
Observed Flight Rules
Oct-23 @ 08:53 UTC
(47 minutes ago)
VFR
Wind Visibility
310° at 10 knots 10 miles
Clouds
  • Clear skies
Temperature Dewpoint
5°C / 41°F -2°C / 28°F
Humidity Altimeter Pressure
61% 30.13" Hg 1020.6 hPa